sensor_id;sensor_type;location;lat;lon;timestamp;temperature;humidity
65766;SHT31;52915;53.718;19.946;2022-08-02T00:01:31;16.14;79.64
65766;SHT31;52915;53.718;19.946;2022-08-02T00:06:36;16.10;79.79
65766;SHT31;52915;53.718;19.946;2022-08-02T00:11:44;16.13;79.61
65766;SHT31;52915;53.718;19.946;2022-08-02T00:16:48;16.05;79.52
65766;SHT31;52915;53.718;19.946;2022-08-02T00:21:53;16.00;79.49
65766;SHT31;52915;53.718;19.946;2022-08-02T00:26:57;15.95;79.53
65766;SHT31;52915;53.718;19.946;2022-08-02T00:32:02;15.84;79.82
65766;SHT31;52915;53.718;19.946;2022-08-02T00:37:07;15.74;79.85
65766;SHT31;52915;53.718;19.946;2022-08-02T00:42:13;15.74;79.62
65766;SHT31;52915;53.718;19.946;2022-08-02T00:47:18;15.65;79.85
65766;SHT31;52915;53.718;19.946;2022-08-02T00:52:23;15.56;80.00
65766;SHT31;52915;53.718;19.946;2022-08-02T00:57:27;15.51;80.03
65766;SHT31;52915;53.718;19.946;2022-08-02T01:02:32;15.46;80.11
65766;SHT31;52915;53.718;19.946;2022-08-02T01:07:36;15.39;80.49
65766;SHT31;52915;53.718;19.946;2022-08-02T01:12:41;15.30;80.75
65766;SHT31;52915;53.718;19.946;2022-08-02T01:17:49;15.30;80.64
65766;SHT31;52915;53.718;19.946;2022-08-02T01:23:20;15.31;80.60
65766;SHT31;52915;53.718;19.946;2022-08-02T01:34:21;15.26;80.79
65766;SHT31;52915;53.718;19.946;2022-08-02T01:39:39;15.20;81.09
65766;SHT31;52915;53.718;19.946;2022-08-02T01:44:48;15.10;81.33
65766;SHT31;52915;53.718;19.946;2022-08-02T01:49:58;15.06;81.20
65766;SHT31;52915;53.718;19.946;2022-08-02T02:01:01;14.95;81.14
65766;SHT31;52915;53.718;19.946;2022-08-02T02:06:09;14.88;81.18
65766;SHT31;52915;53.718;19.946;2022-08-02T02:11:15;14.85;81.11
65766;SHT31;52915;53.718;19.946;2022-08-02T02:16:41;14.80;81.07
65766;SHT31;52915;53.718;19.946;2022-08-02T02:21:49;14.78;81.22
65766;SHT31;52915;53.718;19.946;2022-08-02T02:26:53;14.76;81.27
65766;SHT31;52915;53.718;19.946;2022-08-02T02:31:59;14.72;81.51
65766;SHT31;52915;53.718;19.946;2022-08-02T02:37:05;14.68;81.74
65766;SHT31;52915;53.718;19.946;2022-08-02T02:42:21;14.63;82.01
65766;SHT31;52915;53.718;19.946;2022-08-02T02:47:36;14.55;82.24
65766;SHT31;52915;53.718;19.946;2022-08-02T02:52:43;14.53;82.61
65766;SHT31;52915;53.718;19.946;2022-08-02T02:57:49;14.60;82.63
65766;SHT31;52915;53.718;19.946;2022-08-02T03:02:54;14.65;83.05
65766;SHT31;52915;53.718;19.946;2022-08-02T03:07:59;14.69;83.54
65766;SHT31;52915;53.718;19.946;2022-08-02T03:13:04;14.78;83.78
65766;SHT31;52915;53.718;19.946;2022-08-02T03:18:08;14.90;83.72
65766;SHT31;52915;53.718;19.946;2022-08-02T03:23:12;15.03;83.67
65766;SHT31;52915;53.718;19.946;2022-08-02T03:28:19;15.15;83.68
65766;SHT31;52915;53.718;19.946;2022-08-02T03:33:24;15.25;83.76
65766;SHT31;52915;53.718;19.946;2022-08-02T03:38:29;15.39;83.85
65766;SHT31;52915;53.718;19.946;2022-08-02T03:43:37;15.48;83.74
65766;SHT31;52915;53.718;19.946;2022-08-02T03:48:42;15.57;83.75
65766;SHT31;52915;53.718;19.946;2022-08-02T03:53:47;15.62;83.75
65766;SHT31;52915;53.718;19.946;2022-08-02T03:59:11;15.71;83.64
65766;SHT31;52915;53.718;19.946;2022-08-02T04:04:17;15.83;83.28
65766;SHT31;52915;53.718;19.946;2022-08-02T04:09:21;15.93;82.92
65766;SHT31;52915;53.718;19.946;2022-08-02T04:14:25;16.02;82.86
65766;SHT31;52915;53.718;19.946;2022-08-02T04:19:31;16.11;82.84
65766;SHT31;52915;53.718;19.946;2022-08-02T04:24:46;16.22;82.44
65766;SHT31;52915;53.718;19.946;2022-08-02T04:29:57;16.30;82.17
65766;SHT31;52915;53.718;19.946;2022-08-02T04:35:04;16.39;81.96
65766;SHT31;52915;53.718;19.946;2022-08-02T04:40:22;16.48;82.21
65766;SHT31;52915;53.718;19.946;2022-08-02T04:45:26;16.57;82.21
65766;SHT31;52915;53.718;19.946;2022-08-02T04:50:33;16.69;82.13
65766;SHT31;52915;53.718;19.946;2022-08-02T04:55:41;16.81;82.11
65766;SHT31;52915;53.718;19.946;2022-08-02T05:00:51;16.86;82.54
65766;SHT31;52915;53.718;19.946;2022-08-02T05:05:55;16.97;82.19
65766;SHT31;52915;53.718;19.946;2022-08-02T05:10:59;17.16;82.11
65766;SHT31;52915;53.718;19.946;2022-08-02T05:16:04;17.33;81.96
65766;SHT31;52915;53.718;19.946;2022-08-02T05:21:08;17.43;82.16
65766;SHT31;52915;53.718;19.946;2022-08-02T05:26:12;17.56;81.67
65766;SHT31;52915;53.718;19.946;2022-08-02T05:31:16;17.67;81.08
65766;SHT31;52915;53.718;19.946;2022-08-02T05:36:21;17.78;80.78
65766;SHT31;52915;53.718;19.946;2022-08-02T05:41:26;17.91;80.50
65766;SHT31;52915;53.718;19.946;2022-08-02T05:46:30;18.15;80.40
65766;SHT31;52915;53.718;19.946;2022-08-02T05:52:19;18.41;79.79
65766;SHT31;52915;53.718;19.946;2022-08-02T05:57:25;18.66;79.13
65766;SHT31;52915;53.718;19.946;2022-08-02T06:03:13;18.89;78.87
65766;SHT31;52915;53.718;19.946;2022-08-02T06:08:36;19.14;78.50
65766;SHT31;52915;53.718;19.946;2022-08-02T06:13:50;19.38;78.17
65766;SHT31;52915;53.718;19.946;2022-08-02T06:18:57;19.67;77.54
65766;SHT31;52915;53.718;19.946;2022-08-02T06:24:03;19.98;77.10
65766;SHT31;52915;53.718;19.946;2022-08-02T06:29:11;20.23;76.18
65766;SHT31;52915;53.718;19.946;2022-08-02T06:34:16;20.37;75.53
65766;SHT31;52915;53.718;19.946;2022-08-02T06:39:31;20.64;74.99
65766;SHT31;52915;53.718;19.946;2022-08-02T06:44:47;20.81;74.54
65766;SHT31;52915;53.718;19.946;2022-08-02T06:49:58;21.08;74.20
65766;SHT31;52915;53.718;19.946;2022-08-02T06:55:04;21.49;73.46
65766;SHT31;52915;53.718;19.946;2022-08-02T07:00:09;21.62;72.17
65766;SHT31;52915;53.718;19.946;2022-08-02T07:05:17;21.91;72.02
65766;SHT31;52915;53.718;19.946;2022-08-02T07:10:22;22.33;71.36
65766;SHT31;52915;53.718;19.946;2022-08-02T07:15:26;22.95;70.35
65766;SHT31;52915;53.718;19.946;2022-08-02T07:20:31;23.19;68.19
65766;SHT31;52915;53.718;19.946;2022-08-02T07:25:36;23.32;67.69
65766;SHT31;52915;53.718;19.946;2022-08-02T07:31:02;23.73;67.06
65766;SHT31;52915;53.718;19.946;2022-08-02T07:36:07;23.90;65.62
65766;SHT31;52915;53.718;19.946;2022-08-02T07:41:24;23.97;63.50
65766;SHT31;52915;53.718;19.946;2022-08-02T07:46:28;23.78;62.71
65766;SHT31;52915;53.718;19.946;2022-08-02T07:51:34;23.79;62.63
65766;SHT31;52915;53.718;19.946;2022-08-02T07:56:38;24.27;62.65
65766;SHT31;52915;53.718;19.946;2022-08-02T08:01:43;24.84;60.25
65766;SHT31;52915;53.718;19.946;2022-08-02T08:06:48;24.80;58.47
65766;SHT31;52915;53.718;19.946;2022-08-02T08:11:54;24.53;59.63
65766;SHT31;52915;53.718;19.946;2022-08-02T08:16:58;24.56;60.40
65766;SHT31;52915;53.718;19.946;2022-08-02T08:22:02;24.54;59.89
65766;SHT31;52915;53.718;19.946;2022-08-02T08:27:07;24.41;60.09
65766;SHT31;52915;53.718;19.946;2022-08-02T08:32:16;24.68;59.49
65766;SHT31;52915;53.718;19.946;2022-08-02T08:37:22;24.24;59.17
65766;SHT31;52915;53.718;19.946;2022-08-02T08:42:26;24.15;60.28
65766;SHT31;52915;53.718;19.946;2022-08-02T08:47:34;24.31;59.11
65766;SHT31;52915;53.718;19.946;2022-08-02T08:52:42;24.27;59.63
65766;SHT31;52915;53.718;19.946;2022-08-02T08:58:08;24.43;58.56
65766;SHT31;52915;53.718;19.946;2022-08-02T09:03:15;24.53;58.19
65766;SHT31;52915;53.718;19.946;2022-08-02T09:08:20;24.68;58.38
65766;SHT31;52915;53.718;19.946;2022-08-02T09:13:30;25.38;57.44
65766;SHT31;52915;53.718;19.946;2022-08-02T09:18:48;26.03;56.65
65766;SHT31;52915;53.718;19.946;2022-08-02T09:23:52;26.73;56.22
65766;SHT31;52915;53.718;19.946;2022-08-02T09:28:58;26.93;55.14
65766;SHT31;52915;53.718;19.946;2022-08-02T09:34:04;27.04;54.48
65766;SHT31;52915;53.718;19.946;2022-08-02T09:39:13;27.07;53.78
65766;SHT31;52915;53.718;19.946;2022-08-02T09:44:21;27.06;53.35
65766;SHT31;52915;53.718;19.946;2022-08-02T09:49:34;26.70;54.03
65766;SHT31;52915;53.718;19.946;2022-08-02T09:54:54;26.32;54.72
65766;SHT31;52915;53.718;19.946;2022-08-02T10:00:07;26.61;54.72
65766;SHT31;52915;53.718;19.946;2022-08-02T10:05:18;27.32;53.54
65766;SHT31;52915;53.718;19.946;2022-08-02T10:10:24;27.65;51.42
65766;SHT31;52915;53.718;19.946;2022-08-02T10:15:28;27.50;50.61
65766;SHT31;52915;53.718;19.946;2022-08-02T10:20:39;27.60;50.24
65766;SHT31;52915;53.718;19.946;2022-08-02T10:25:47;28.05;50.74
65766;SHT31;52915;53.718;19.946;2022-08-02T10:30:55;27.93;50.02
65766;SHT31;52915;53.718;19.946;2022-08-02T10:36:06;27.54;50.65
65766;SHT31;52915;53.718;19.946;2022-08-02T10:41:12;27.43;50.99
65766;SHT31;52915;53.718;19.946;2022-08-02T10:46:22;28.04;50.26
65766;SHT31;52915;53.718;19.946;2022-08-02T10:56:58;28.60;47.10
65766;SHT31;52915;53.718;19.946;2022-08-02T11:02:04;28.54;47.17
65766;SHT31;52915;53.718;19.946;2022-08-02T11:07:13;28.33;46.47
65766;SHT31;52915;53.718;19.946;2022-08-02T11:12:20;28.41;46.50
65766;SHT31;52915;53.718;19.946;2022-08-02T11:17:24;28.47;45.15
65766;SHT31;52915;53.718;19.946;2022-08-02T11:22:43;28.70;46.30
65766;SHT31;52915;53.718;19.946;2022-08-02T11:33:00;28.61;47.13
65766;SHT31;52915;53.718;19.946;2022-08-02T11:38:16;28.28;47.17
65766;SHT31;52915;53.718;19.946;2022-08-02T11:43:24;27.95;46.85
65766;SHT31;52915;53.718;19.946;2022-08-02T11:48:34;27.93;46.51
65766;SHT31;52915;53.718;19.946;2022-08-02T11:59:04;27.26;46.78
65766;SHT31;52915;53.718;19.946;2022-08-02T12:04:12;27.42;46.49
65766;SHT31;52915;53.718;19.946;2022-08-02T12:09:25;27.58;45.26
65766;SHT31;52915;53.718;19.946;2022-08-02T12:14:32;27.86;45.18
65766;SHT31;52915;53.718;19.946;2022-08-02T12:19:46;28.32;44.21
65766;SHT31;52915;53.718;19.946;2022-08-02T12:24:54;28.68;44.42
65766;SHT31;52915;53.718;19.946;2022-08-02T12:30:10;29.42;44.02
65766;SHT31;52915;53.718;19.946;2022-08-02T12:35:29;29.71;42.89
65766;SHT31;52915;53.718;19.946;2022-08-02T12:40:33;29.50;42.57
65766;SHT31;52915;53.718;19.946;2022-08-02T12:45:46;29.65;42.78
65766;SHT31;52915;53.718;19.946;2022-08-02T12:50:56;29.83;42.56
65766;SHT31;52915;53.718;19.946;2022-08-02T12:56:00;29.62;41.83
65766;SHT31;52915;53.718;19.946;2022-08-02T13:01:05;29.51;41.64
65766;SHT31;52915;53.718;19.946;2022-08-02T13:06:10;29.47;41.87
65766;SHT31;52915;53.718;19.946;2022-08-02T13:11:34;29.88;41.42
65766;SHT31;52915;53.718;19.946;2022-08-02T13:16:39;29.79;41.03
65766;SHT31;52915;53.718;19.946;2022-08-02T13:21:48;29.64;40.72
65766;SHT31;52915;53.718;19.946;2022-08-02T13:27:05;29.25;40.88
65766;SHT31;52915;53.718;19.946;2022-08-02T13:32:11;29.08;41.10
65766;SHT31;52915;53.718;19.946;2022-08-02T13:37:16;28.68;40.06
65766;SHT31;52915;53.718;19.946;2022-08-02T13:42:21;28.66;41.18
65766;SHT31;52915;53.718;19.946;2022-08-02T13:47:25;29.18;41.42
65766;SHT31;52915;53.718;19.946;2022-08-02T13:52:50;29.68;40.84
65766;SHT31;52915;53.718;19.946;2022-08-02T13:57:56;29.81;39.40
65766;SHT31;52915;53.718;19.946;2022-08-02T14:03:02;29.74;38.92
65766;SHT31;52915;53.718;19.946;2022-08-02T14:08:09;29.83;38.51
65766;SHT31;52915;53.718;19.946;2022-08-02T14:13:18;29.65;38.03
65766;SHT31;52915;53.718;19.946;2022-08-02T14:18:23;29.63;38.42
65766;SHT31;52915;53.718;19.946;2022-08-02T14:23:27;29.57;37.50
65766;SHT31;52915;53.718;19.946;2022-08-02T14:28:52;29.08;38.32
65766;SHT31;52915;53.718;19.946;2022-08-02T14:33:58;29.20;39.68
65766;SHT31;52915;53.718;19.946;2022-08-02T14:39:02;29.55;38.81
65766;SHT31;52915;53.718;19.946;2022-08-02T14:44:06;29.57;38.72
65766;SHT31;52915;53.718;19.946;2022-08-02T14:49:11;29.39;37.95
65766;SHT31;52915;53.718;19.946;2022-08-02T14:54:17;29.14;37.78
65766;SHT31;52915;53.718;19.946;2022-08-02T14:59:29;28.84;37.56
65766;SHT31;52915;53.718;19.946;2022-08-02T15:04:34;28.65;37.81
65766;SHT31;52915;53.718;19.946;2022-08-02T15:09:45;29.05;37.87
65766;SHT31;52915;53.718;19.946;2022-08-02T15:14:49;29.82;35.62
65766;SHT31;52915;53.718;19.946;2022-08-02T15:19:55;31.09;34.79
65766;SHT31;52915;53.718;19.946;2022-08-02T15:25:22;32.54;32.21
65766;SHT31;52915;53.718;19.946;2022-08-02T15:30:27;33.22;31.30
65766;SHT31;52915;53.718;19.946;2022-08-02T15:35:31;33.42;30.60
65766;SHT31;52915;53.718;19.946;2022-08-02T15:40:36;33.94;29.46
65766;SHT31;52915;53.718;19.946;2022-08-02T15:45:40;32.64;29.24
65766;SHT31;52915;53.718;19.946;2022-08-02T15:50:45;31.99;30.74
65766;SHT31;52915;53.718;19.946;2022-08-02T15:55:52;31.98;31.13
65766;SHT31;52915;53.718;19.946;2022-08-02T16:01:09;32.32;31.35
65766;SHT31;52915;53.718;19.946;2022-08-02T16:06:13;32.54;33.38
65766;SHT31;52915;53.718;19.946;2022-08-02T16:11:18;32.43;34.87
65766;SHT31;52915;53.718;19.946;2022-08-02T16:16:23;32.39;35.69
65766;SHT31;52915;53.718;19.946;2022-08-02T16:21:33;32.27;36.99
65766;SHT31;52915;53.718;19.946;2022-08-02T16:26:39;32.00;38.37
65766;SHT31;52915;53.718;19.946;2022-08-02T16:31:45;31.70;39.29
65766;SHT31;52915;53.718;19.946;2022-08-02T16:36:50;31.41;39.81
65766;SHT31;52915;53.718;19.946;2022-08-02T16:41:56;30.89;40.62
65766;SHT31;52915;53.718;19.946;2022-08-02T16:47:00;30.23;41.98
65766;SHT31;52915;53.718;19.946;2022-08-02T16:52:05;29.82;42.63
65766;SHT31;52915;53.718;19.946;2022-08-02T16:57:11;29.45;43.37
65766;SHT31;52915;53.718;19.946;2022-08-02T17:02:17;28.95;44.27
65766;SHT31;52915;53.718;19.946;2022-08-02T17:07:27;28.55;45.05
65766;SHT31;52915;53.718;19.946;2022-08-02T17:12:55;28.21;45.67
65766;SHT31;52915;53.718;19.946;2022-08-02T17:18:13;27.83;46.23
65766;SHT31;52915;53.718;19.946;2022-08-02T17:23:28;27.34;47.37
65766;SHT31;52915;53.718;19.946;2022-08-02T17:28:53;26.75;48.72
65766;SHT31;52915;53.718;19.946;2022-08-02T17:34:18;26.20;50.04
65766;SHT31;52915;53.718;19.946;2022-08-02T17:39:28;25.69;51.01
65766;SHT31;52915;53.718;19.946;2022-08-02T17:44:45;25.24;52.15
65766;SHT31;52915;53.718;19.946;2022-08-02T17:49:54;24.78;53.11
65766;SHT31;52915;53.718;19.946;2022-08-02T17:55:02;24.47;53.94
65766;SHT31;52915;53.718;19.946;2022-08-02T18:00:07;24.16;54.65
65766;SHT31;52915;53.718;19.946;2022-08-02T18:05:14;23.77;55.53
65766;SHT31;52915;53.718;19.946;2022-08-02T18:10:23;23.48;56.26
65766;SHT31;52915;53.718;19.946;2022-08-02T18:15:28;23.22;56.82
65766;SHT31;52915;53.718;19.946;2022-08-02T18:20:34;22.94;57.62
65766;SHT31;52915;53.718;19.946;2022-08-02T18:25:39;22.70;58.29
65766;SHT31;52915;53.718;19.946;2022-08-02T18:30:49;22.46;58.92
65766;SHT31;52915;53.718;19.946;2022-08-02T18:35:54;22.23;59.38
65766;SHT31;52915;53.718;19.946;2022-08-02T18:40:59;22.00;60.00
65766;SHT31;52915;53.718;19.946;2022-08-02T18:46:06;21.85;60.33
65766;SHT31;52915;53.718;19.946;2022-08-02T18:51:19;21.68;60.71
65766;SHT31;52915;53.718;19.946;2022-08-02T18:56:25;21.50;61.13
65766;SHT31;52915;53.718;19.946;2022-08-02T19:01:34;21.35;61.72
65766;SHT31;52915;53.718;19.946;2022-08-02T19:06:53;21.15;62.36
65766;SHT31;52915;53.718;19.946;2022-08-02T19:12:10;20.98;62.95
65766;SHT31;52915;53.718;19.946;2022-08-02T19:17:18;20.86;63.55
65766;SHT31;52915;53.718;19.946;2022-08-02T19:22:42;20.66;64.36
65766;SHT31;52915;53.718;19.946;2022-08-02T19:27:46;20.56;64.68
65766;SHT31;52915;53.718;19.946;2022-08-02T19:32:53;20.48;65.31
65766;SHT31;52915;53.718;19.946;2022-08-02T19:38:08;20.29;66.17
65766;SHT31;52915;53.718;19.946;2022-08-02T19:43:14;20.14;66.61
65766;SHT31;52915;53.718;19.946;2022-08-02T19:48:38;20.11;66.67
65766;SHT31;52915;53.718;19.946;2022-08-02T19:53:43;20.00;67.08
65766;SHT31;52915;53.718;19.946;2022-08-02T19:58:50;19.89;67.54
65766;SHT31;52915;53.718;19.946;2022-08-02T20:03:58;19.72;68.12
65766;SHT31;52915;53.718;19.946;2022-08-02T20:09:04;19.55;68.46
65766;SHT31;52915;53.718;19.946;2022-08-02T20:14:11;19.48;68.63
65766;SHT31;52915;53.718;19.946;2022-08-02T20:19:17;19.37;69.10
65766;SHT31;52915;53.718;19.946;2022-08-02T20:24:23;19.26;69.71
65766;SHT31;52915;53.718;19.946;2022-08-02T20:29:28;19.10;70.46
65766;SHT31;52915;53.718;19.946;2022-08-02T20:34:47;19.00;70.83
65766;SHT31;52915;53.718;19.946;2022-08-02T20:39:55;18.93;71.18
65766;SHT31;52915;53.718;19.946;2022-08-02T20:45:00;18.79;71.72
65766;SHT31;52915;53.718;19.946;2022-08-02T20:50:04;18.60;72.36
65766;SHT31;52915;53.718;19.946;2022-08-02T20:55:36;18.47;72.83
65766;SHT31;52915;53.718;19.946;2022-08-02T21:00:47;18.37;72.86
65766;SHT31;52915;53.718;19.946;2022-08-02T21:05:55;18.33;72.96
65766;SHT31;52915;53.718;19.946;2022-08-02T21:11:00;18.30;73.13
65766;SHT31;52915;53.718;19.946;2022-08-02T21:16:11;18.25;73.45
65766;SHT31;52915;53.718;19.946;2022-08-02T21:21:21;18.22;73.61
65766;SHT31;52915;53.718;19.946;2022-08-02T21:26:25;18.15;74.05
65766;SHT31;52915;53.718;19.946;2022-08-02T21:31:34;17.94;74.97
65766;SHT31;52915;53.718;19.946;2022-08-02T21:36:39;17.81;75.21
65766;SHT31;52915;53.718;19.946;2022-08-02T21:41:44;17.71;75.73
65766;SHT31;52915;53.718;19.946;2022-08-02T21:46:50;17.56;76.43
65766;SHT31;52915;53.718;19.946;2022-08-02T21:51:58;17.52;76.43
65766;SHT31;52915;53.718;19.946;2022-08-02T21:57:02;17.46;76.94
65766;SHT31;52915;53.718;19.946;2022-08-02T22:02:06;17.35;77.62
65766;SHT31;52915;53.718;19.946;2022-08-02T22:07:11;17.22;78.21
65766;SHT31;52915;53.718;19.946;2022-08-02T22:12:19;17.11;78.81
65766;SHT31;52915;53.718;19.946;2022-08-02T22:17:28;17.05;79.34
65766;SHT31;52915;53.718;19.946;2022-08-02T22:22:52;17.03;79.19
65766;SHT31;52915;53.718;19.946;2022-08-02T22:27:56;16.98;79.46
65766;SHT31;52915;53.718;19.946;2022-08-02T22:33:21;16.94;79.36
65766;SHT31;52915;53.718;19.946;2022-08-02T22:39:06;16.83;80.22
65766;SHT31;52915;53.718;19.946;2022-08-02T22:44:34;16.68;80.84
65766;SHT31;52915;53.718;19.946;2022-08-02T22:49:38;16.58;81.28
65766;SHT31;52915;53.718;19.946;2022-08-02T22:55:01;16.56;81.07
65766;SHT31;52915;53.718;19.946;2022-08-02T23:00:08;16.49;81.25
65766;SHT31;52915;53.718;19.946;2022-08-02T23:05:16;16.41;81.42
65766;SHT31;52915;53.718;19.946;2022-08-02T23:10:21;16.35;81.50
65766;SHT31;52915;53.718;19.946;2022-08-02T23:15:26;16.33;81.76
65766;SHT31;52915;53.718;19.946;2022-08-02T23:20:50;16.29;82.14
65766;SHT31;52915;53.718;19.946;2022-08-02T23:25:54;16.25;82.36
65766;SHT31;52915;53.718;19.946;2022-08-02T23:30:59;16.24;82.24
65766;SHT31;52915;53.718;19.946;2022-08-02T23:36:03;16.18;82.07
65766;SHT31;52915;53.718;19.946;2022-08-02T23:41:08;16.13;82.00
65766;SHT31;52915;53.718;19.946;2022-08-02T23:46:12;16.08;81.93
65766;SHT31;52915;53.718;19.946;2022-08-02T23:51:16;16.02;81.89
65766;SHT31;52915;53.718;19.946;2022-08-02T23:56:24;16.02;81.65
